sensor_id;sensor_type;location;lat;lon;timestamp;P1;durP1;ratioP1;P2;durP2;ratioP2
37288;SDS011;23174;49.462;11.000;2023-04-01T00:00:51;1.98;;;0.90;;
37288;SDS011;23174;49.462;11.000;2023-04-01T00:02:53;1.20;;;0.88;;
37288;SDS011;23174;49.462;11.000;2023-04-01T00:04:56;2.50;;;1.08;;
37288;SDS011;23174;49.462;11.000;2023-04-01T00:06:57;2.13;;;0.93;;
37288;SDS011;23174;49.462;11.000;2023-04-01T00:08:58;1.48;;;0.95;;
37288;SDS011;23174;49.462;11.000;2023-04-01T00:10:58;2.15;;;0.95;;
37288;SDS011;23174;49.462;11.000;2023-04-01T00:12:59;3.88;;;1.35;;
37288;SDS011;23174;49.462;11.000;2023-04-01T00:15:00;1.05;;;0.70;;
37288;SDS011;23174;49.462;11.000;2023-04-01T00:17:02;2.67;;;0.80;;
37288;SDS011;23174;49.462;11.000;2023-04-01T00:19:02;2.80;;;0.60;;
37288;SDS011;23174;49.462;11.000;2023-04-01T00:21:03;1.38;;;0.80;;
37288;SDS011;23174;49.462;11.000;2023-04-01T00:23:04;2.28;;;1.10;;
37288;SDS011;23174;49.462;11.000;2023-04-01T00:25:05;4.80;;;1.02;;
37288;SDS011;23174;49.462;11.000;2023-04-01T00:27:06;1.80;;;0.70;;
37288;SDS011;23174;49.462;11.000;2023-04-01T00:29:08;1.55;;;0.90;;
37288;SDS011;23174;49.462;11.000;2023-04-01T00:31:09;3.40;;;0.82;;
37288;SDS011;23174;49.462;11.000;2023-04-01T00:33:10;1.75;;;0.90;;
37288;SDS011;23174;49.462;11.000;2023-04-01T00:35:11;2.35;;;1.00;;
37288;SDS011;23174;49.462;11.000;2023-04-01T00:37:12;0.90;;;0.75;;
37288;SDS011;23174;49.462;11.000;2023-04-01T00:39:13;1.33;;;0.80;;
37288;SDS011;23174;49.462;11.000;2023-04-01T00:41:14;3.75;;;1.00;;
37288;SDS011;23174;49.462;11.000;2023-04-01T00:43:18;1.30;;;0.82;;
37288;SDS011;23174;49.462;11.000;2023-04-01T00:45:25;2.05;;;0.85;;
37288;SDS011;23174;49.462;11.000;2023-04-01T00:47:29;1.27;;;0.80;;
37288;SDS011;23174;49.462;11.000;2023-04-01T00:49:30;3.15;;;1.10;;
37288;SDS011;23174;49.462;11.000;2023-04-01T00:51:35;1.25;;;0.70;;
37288;SDS011;23174;49.462;11.000;2023-04-01T00:53:39;0.80;;;0.63;;
37288;SDS011;23174;49.462;11.000;2023-04-01T00:55:44;1.13;;;0.70;;
37288;SDS011;23174;49.462;11.000;2023-04-01T00:57:50;3.33;;;0.70;;
37288;SDS011;23174;49.462;11.000;2023-04-01T00:59:54;1.73;;;0.68;;
37288;SDS011;23174;49.462;11.000;2023-04-01T01:01:55;2.60;;;0.52;;
37288;SDS011;23174;49.462;11.000;2023-04-01T01:03:57;0.68;;;0.65;;
37288;SDS011;23174;49.462;11.000;2023-04-01T01:08:22;1.95;;;0.77;;
37288;SDS011;23174;49.462;11.000;2023-04-01T01:10:49;2.05;;;0.75;;
37288;SDS011;23174;49.462;11.000;2023-04-01T01:12:57;1.35;;;0.63;;
37288;SDS011;23174;49.462;11.000;2023-04-01T01:15:17;1.90;;;0.93;;
37288;SDS011;23174;49.462;11.000;2023-04-01T01:27:09;0.32;;;0.32;;
37288;SDS011;23174;49.462;11.000;2023-04-01T01:34:19;0.70;;;0.70;;
37288;SDS011;23174;49.462;11.000;2023-04-01T01:36:32;0.95;;;0.70;;
37288;SDS011;23174;49.462;11.000;2023-04-01T01:38:34;1.13;;;0.63;;
37288;SDS011;23174;49.462;11.000;2023-04-01T01:40:36;2.10;;;0.80;;
37288;SDS011;23174;49.462;11.000;2023-04-01T01:42:42;0.98;;;0.50;;
37288;SDS011;23174;49.462;11.000;2023-04-01T01:44:46;1.00;;;0.90;;
37288;SDS011;23174;49.462;11.000;2023-04-01T01:46:49;1.13;;;0.70;;
37288;SDS011;23174;49.462;11.000;2023-04-01T01:48:50;1.27;;;0.63;;
37288;SDS011;23174;49.462;11.000;2023-04-01T01:50:52;1.15;;;0.50;;
37288;SDS011;23174;49.462;11.000;2023-04-01T01:53:03;0.85;;;0.40;;
37288;SDS011;23174;49.462;11.000;2023-04-01T01:55:26;0.95;;;0.73;;
37288;SDS011;23174;49.462;11.000;2023-04-01T01:57:31;1.88;;;0.57;;
37288;SDS011;23174;49.462;11.000;2023-04-01T01:59:35;0.85;;;0.55;;
37288;SDS011;23174;49.462;11.000;2023-04-01T02:01:39;1.50;;;1.13;;
37288;SDS011;23174;49.462;11.000;2023-04-01T02:03:42;1.77;;;0.40;;
37288;SDS011;23174;49.462;11.000;2023-04-01T02:05:45;0.77;;;0.60;;
37288;SDS011;23174;49.462;11.000;2023-04-01T02:07:49;1.60;;;0.52;;
37288;SDS011;23174;49.462;11.000;2023-04-01T02:09:57;1.15;;;0.47;;
37288;SDS011;23174;49.462;11.000;2023-04-01T02:12:05;0.85;;;0.40;;
37288;SDS011;23174;49.462;11.000;2023-04-01T02:14:13;0.70;;;0.65;;
37288;SDS011;23174;49.462;11.000;2023-04-01T02:16:20;1.40;;;0.52;;
37288;SDS011;23174;49.462;11.000;2023-04-01T02:18:25;0.90;;;0.60;;
37288;SDS011;23174;49.462;11.000;2023-04-01T02:20:27;3.25;;;0.70;;
37288;SDS011;23174;49.462;11.000;2023-04-01T02:22:40;1.58;;;0.70;;
37288;SDS011;23174;49.462;11.000;2023-04-01T02:24:44;1.38;;;0.47;;
37288;SDS011;23174;49.462;11.000;2023-04-01T02:26:45;0.85;;;0.30;;
37288;SDS011;23174;49.462;11.000;2023-04-01T02:28:47;0.47;;;0.38;;
37288;SDS011;23174;49.462;11.000;2023-04-01T02:30:49;0.65;;;0.40;;
37288;SDS011;23174;49.462;11.000;2023-04-01T02:32:50;0.88;;;0.52;;
37288;SDS011;23174;49.462;11.000;2023-04-01T02:34:52;1.80;;;0.60;;
37288;SDS011;23174;49.462;11.000;2023-04-01T02:36:53;0.63;;;0.57;;
37288;SDS011;23174;49.462;11.000;2023-04-01T02:38:55;0.68;;;0.60;;
37288;SDS011;23174;49.462;11.000;2023-04-01T02:41:02;0.63;;;0.32;;
37288;SDS011;23174;49.462;11.000;2023-04-01T02:43:03;4.22;;;0.60;;
37288;SDS011;23174;49.462;11.000;2023-04-01T02:45:07;0.50;;;0.43;;
37288;SDS011;23174;49.462;11.000;2023-04-01T02:47:08;1.02;;;0.68;;
37288;SDS011;23174;49.462;11.000;2023-04-01T02:49:08;1.42;;;0.50;;
37288;SDS011;23174;49.462;11.000;2023-04-01T02:51:09;2.67;;;0.57;;
37288;SDS011;23174;49.462;11.000;2023-04-01T02:53:10;1.00;;;0.60;;
37288;SDS011;23174;49.462;11.000;2023-04-01T02:55:11;3.25;;;0.95;;
37288;SDS011;23174;49.462;11.000;2023-04-01T02:57:11;1.25;;;0.50;;
37288;SDS011;23174;49.462;11.000;2023-04-01T02:59:12;1.67;;;0.80;;
37288;SDS011;23174;49.462;11.000;2023-04-01T03:01:13;1.05;;;0.70;;
37288;SDS011;23174;49.462;11.000;2023-04-01T03:03:14;0.75;;;0.43;;
37288;SDS011;23174;49.462;11.000;2023-04-01T03:05:14;1.00;;;0.60;;
37288;SDS011;23174;49.462;11.000;2023-04-01T03:07:15;2.75;;;0.73;;
37288;SDS011;23174;49.462;11.000;2023-04-01T03:09:16;1.98;;;0.60;;
37288;SDS011;23174;49.462;11.000;2023-04-01T03:11:16;2.40;;;0.80;;
37288;SDS011;23174;49.462;11.000;2023-04-01T03:13:17;1.27;;;0.70;;
37288;SDS011;23174;49.462;11.000;2023-04-01T03:15:17;3.13;;;0.63;;
37288;SDS011;23174;49.462;11.000;2023-04-01T03:17:18;1.75;;;0.70;;
37288;SDS011;23174;49.462;11.000;2023-04-01T03:19:18;1.25;;;0.63;;
37288;SDS011;23174;49.462;11.000;2023-04-01T03:21:20;1.02;;;0.73;;
37288;SDS011;23174;49.462;11.000;2023-04-01T03:23:22;0.88;;;0.73;;
37288;SDS011;23174;49.462;11.000;2023-04-01T03:25:24;1.13;;;0.73;;
37288;SDS011;23174;49.462;11.000;2023-04-01T03:27:25;1.23;;;0.45;;
37288;SDS011;23174;49.462;11.000;2023-04-01T03:29:25;0.43;;;0.43;;
37288;SDS011;23174;49.462;11.000;2023-04-01T03:31:26;1.23;;;0.63;;
37288;SDS011;23174;49.462;11.000;2023-04-01T03:33:26;0.63;;;0.40;;
37288;SDS011;23174;49.462;11.000;2023-04-01T03:35:27;2.90;;;0.90;;
37288;SDS011;23174;49.462;11.000;2023-04-01T03:37:28;2.25;;;0.90;;
37288;SDS011;23174;49.462;11.000;2023-04-01T03:39:28;1.92;;;0.90;;
37288;SDS011;23174;49.462;11.000;2023-04-01T03:41:30;1.67;;;1.00;;
37288;SDS011;23174;49.462;11.000;2023-04-01T03:43:31;1.20;;;0.68;;
37288;SDS011;23174;49.462;11.000;2023-04-01T03:45:32;1.95;;;0.73;;
37288;SDS011;23174;49.462;11.000;2023-04-01T03:47:33;1.08;;;0.70;;
37288;SDS011;23174;49.462;11.000;2023-04-01T03:49:33;0.70;;;0.40;;
37288;SDS011;23174;49.462;11.000;2023-04-01T03:51:34;1.75;;;0.75;;
37288;SDS011;23174;49.462;11.000;2023-04-01T03:53:35;1.52;;;0.60;;
37288;SDS011;23174;49.462;11.000;2023-04-01T03:55:36;0.80;;;0.47;;
37288;SDS011;23174;49.462;11.000;2023-04-01T03:57:37;1.95;;;0.70;;
37288;SDS011;23174;49.462;11.000;2023-04-01T03:59:38;1.63;;;0.60;;
37288;SDS011;23174;49.462;11.000;2023-04-01T04:01:38;1.55;;;0.65;;
37288;SDS011;23174;49.462;11.000;2023-04-01T04:03:39;1.38;;;0.70;;
37288;SDS011;23174;49.462;11.000;2023-04-01T04:05:47;1.52;;;0.73;;
37288;SDS011;23174;49.462;11.000;2023-04-01T04:07:48;1.45;;;0.77;;
37288;SDS011;23174;49.462;11.000;2023-04-01T04:09:48;2.35;;;0.77;;
37288;SDS011;23174;49.462;11.000;2023-04-01T04:11:49;1.77;;;0.70;;
37288;SDS011;23174;49.462;11.000;2023-04-01T04:13:50;1.45;;;0.57;;
37288;SDS011;23174;49.462;11.000;2023-04-01T04:15:52;2.63;;;0.90;;
37288;SDS011;23174;49.462;11.000;2023-04-01T04:17:52;2.47;;;0.55;;
37288;SDS011;23174;49.462;11.000;2023-04-01T04:19:53;2.25;;;0.77;;
37288;SDS011;23174;49.462;11.000;2023-04-01T04:21:53;0.90;;;0.45;;
37288;SDS011;23174;49.462;11.000;2023-04-01T04:23:54;2.25;;;0.90;;
37288;SDS011;23174;49.462;11.000;2023-04-01T04:25:58;1.27;;;0.60;;
37288;SDS011;23174;49.462;11.000;2023-04-01T04:28:04;0.53;;;0.50;;
37288;SDS011;23174;49.462;11.000;2023-04-01T04:30:04;0.40;;;0.38;;
37288;SDS011;23174;49.462;11.000;2023-04-01T04:32:06;1.63;;;0.60;;
37288;SDS011;23174;49.462;11.000;2023-04-01T04:34:07;1.70;;;0.65;;
37288;SDS011;23174;49.462;11.000;2023-04-01T04:36:07;2.47;;;0.60;;
37288;SDS011;23174;49.462;11.000;2023-04-01T04:38:08;0.60;;;0.47;;
37288;SDS011;23174;49.462;11.000;2023-04-01T04:40:09;2.05;;;0.50;;
37288;SDS011;23174;49.462;11.000;2023-04-01T04:42:10;0.60;;;0.50;;
37288;SDS011;23174;49.462;11.000;2023-04-01T04:44:10;1.17;;;0.55;;
37288;SDS011;23174;49.462;11.000;2023-04-01T04:46:11;0.63;;;0.40;;
37288;SDS011;23174;49.462;11.000;2023-04-01T04:48:12;1.50;;;0.63;;
37288;SDS011;23174;49.462;11.000;2023-04-01T04:50:18;2.53;;;0.85;;
37288;SDS011;23174;49.462;11.000;2023-04-01T04:52:18;0.40;;;0.32;;
37288;SDS011;23174;49.462;11.000;2023-04-01T04:54:19;3.25;;;1.13;;
37288;SDS011;23174;49.462;11.000;2023-04-01T04:56:20;1.88;;;0.60;;
37288;SDS011;23174;49.462;11.000;2023-04-01T04:58:22;1.77;;;0.75;;
37288;SDS011;23174;49.462;11.000;2023-04-01T05:00:23;0.90;;;0.70;;
37288;SDS011;23174;49.462;11.000;2023-04-01T05:02:23;0.65;;;0.50;;
37288;SDS011;23174;49.462;11.000;2023-04-01T05:04:24;0.60;;;0.50;;
37288;SDS011;23174;49.462;11.000;2023-04-01T05:06:25;1.95;;;0.75;;
37288;SDS011;23174;49.462;11.000;2023-04-01T05:08:29;3.28;;;0.52;;
37288;SDS011;23174;49.462;11.000;2023-04-01T05:10:29;0.85;;;0.40;;
37288;SDS011;23174;49.462;11.000;2023-04-01T05:12:31;0.95;;;0.68;;
37288;SDS011;23174;49.462;11.000;2023-04-01T05:14:35;0.77;;;0.60;;
37288;SDS011;23174;49.462;11.000;2023-04-01T05:16:36;0.80;;;0.60;;
37288;SDS011;23174;49.462;11.000;2023-04-01T05:18:37;0.60;;;0.60;;
37288;SDS011;23174;49.462;11.000;2023-04-01T05:20:38;0.88;;;0.88;;
37288;SDS011;23174;49.462;11.000;2023-04-01T05:22:38;0.50;;;0.35;;
37288;SDS011;23174;49.462;11.000;2023-04-01T05:24:39;0.50;;;0.32;;
37288;SDS011;23174;49.462;11.000;2023-04-01T05:26:40;0.47;;;0.40;;
37288;SDS011;23174;49.462;11.000;2023-04-01T05:28:40;0.90;;;0.50;;
37288;SDS011;23174;49.462;11.000;2023-04-01T05:30:42;0.55;;;0.40;;
37288;SDS011;23174;49.462;11.000;2023-04-01T05:32:43;0.40;;;0.40;;
37288;SDS011;23174;49.462;11.000;2023-04-01T05:34:44;0.65;;;0.40;;
37288;SDS011;23174;49.462;11.000;2023-04-01T05:36:45;0.85;;;0.60;;
37288;SDS011;23174;49.462;11.000;2023-04-01T05:38:45;1.08;;;0.43;;
37288;SDS011;23174;49.462;11.000;2023-04-01T05:40:47;1.05;;;0.40;;
37288;SDS011;23174;49.462;11.000;2023-04-01T05:42:47;0.80;;;0.50;;
37288;SDS011;23174;49.462;11.000;2023-04-01T05:44:51;4.78;;;0.65;;
37288;SDS011;23174;49.462;11.000;2023-04-01T05:46:52;0.55;;;0.52;;
37288;SDS011;23174;49.462;11.000;2023-04-01T05:48:52;1.48;;;0.77;;
37288;SDS011;23174;49.462;11.000;2023-04-01T05:50:58;0.80;;;0.22;;
37288;SDS011;23174;49.462;11.000;2023-04-01T05:52:59;2.00;;;0.50;;
37288;SDS011;23174;49.462;11.000;2023-04-01T05:55:00;1.02;;;0.40;;
37288;SDS011;23174;49.462;11.000;2023-04-01T05:57:01;0.43;;;0.40;;
37288;SDS011;23174;49.462;11.000;2023-04-01T05:59:02;1.15;;;0.47;;
37288;SDS011;23174;49.462;11.000;2023-04-01T06:01:03;0.90;;;0.40;;
37288;SDS011;23174;49.462;11.000;2023-04-01T06:03:05;0.57;;;0.40;;
37288;SDS011;23174;49.462;11.000;2023-04-01T06:05:20;0.50;;;0.35;;
37288;SDS011;23174;49.462;11.000;2023-04-01T06:07:22;1.27;;;0.52;;
37288;SDS011;23174;49.462;11.000;2023-04-01T06:09:25;0.40;;;0.40;;
37288;SDS011;23174;49.462;11.000;2023-04-01T06:14:00;0.65;;;0.30;;
37288;SDS011;23174;49.462;11.000;2023-04-01T06:16:53;0.60;;;0.28;;
37288;SDS011;23174;49.462;11.000;2023-04-01T06:18:41;0.88;;;0.30;;
37288;SDS011;23174;49.462;11.000;2023-04-01T06:20:52;0.73;;;0.50;;
37288;SDS011;23174;49.462;11.000;2023-04-01T06:23:00;0.38;;;0.32;;
37288;SDS011;23174;49.462;11.000;2023-04-01T06:39:16;2.97;;;0.65;;
37288;SDS011;23174;49.462;11.000;2023-04-01T06:44:04;2.35;;;0.80;;
37288;SDS011;23174;49.462;11.000;2023-04-01T06:48:49;1.15;;;0.47;;
37288;SDS011;23174;49.462;11.000;2023-04-01T06:51:28;0.60;;;0.50;;
37288;SDS011;23174;49.462;11.000;2023-04-01T06:53:31;1.35;;;0.45;;
37288;SDS011;23174;49.462;11.000;2023-04-01T06:55:41;0.85;;;0.30;;
37288;SDS011;23174;49.462;11.000;2023-04-01T06:57:49;2.35;;;0.38;;
37288;SDS011;23174;49.462;11.000;2023-04-01T06:59:55;1.33;;;0.40;;
37288;SDS011;23174;49.462;11.000;2023-04-01T07:02:46;0.82;;;0.50;;
37288;SDS011;23174;49.462;11.000;2023-04-01T07:04:29;1.60;;;0.93;;
37288;SDS011;23174;49.462;11.000;2023-04-01T07:06:39;1.73;;;0.60;;
37288;SDS011;23174;49.462;11.000;2023-04-01T07:08:50;0.38;;;0.30;;
37288;SDS011;23174;49.462;11.000;2023-04-01T07:10:55;0.63;;;0.40;;
37288;SDS011;23174;49.462;11.000;2023-04-01T07:13:00;0.50;;;0.38;;
37288;SDS011;23174;49.462;11.000;2023-04-01T07:15:12;0.70;;;0.50;;
37288;SDS011;23174;49.462;11.000;2023-04-01T07:17:17;0.20;;;0.20;;
37288;SDS011;23174;49.462;11.000;2023-04-01T07:19:29;0.85;;;0.85;;
37288;SDS011;23174;49.462;11.000;2023-04-01T07:26:39;0.65;;;0.40;;
37288;SDS011;23174;49.462;11.000;2023-04-01T07:28:40;0.63;;;0.43;;
37288;SDS011;23174;49.462;11.000;2023-04-01T07:30:50;1.23;;;0.40;;
37288;SDS011;23174;49.462;11.000;2023-04-01T07:33:16;0.73;;;0.45;;
37288;SDS011;23174;49.462;11.000;2023-04-01T07:35:25;1.17;;;0.40;;
37288;SDS011;23174;49.462;11.000;2023-04-01T07:37:46;2.63;;;0.40;;
37288;SDS011;23174;49.462;11.000;2023-04-01T07:44:52;0.50;;;0.38;;
37288;SDS011;23174;49.462;11.000;2023-04-01T07:49:12;0.98;;;0.47;;
37288;SDS011;23174;49.462;11.000;2023-04-01T07:54:24;1.35;;;0.60;;
37288;SDS011;23174;49.462;11.000;2023-04-01T07:56:27;0.63;;;0.50;;
37288;SDS011;23174;49.462;11.000;2023-04-01T08:00:57;1.98;;;0.60;;
37288;SDS011;23174;49.462;11.000;2023-04-01T08:07:25;0.50;;;0.35;;
37288;SDS011;23174;49.462;11.000;2023-04-01T08:09:52;1.45;;;0.47;;
37288;SDS011;23174;49.462;11.000;2023-04-01T08:18:59;3.03;;;0.50;;
37288;SDS011;23174;49.462;11.000;2023-04-01T08:21:21;0.85;;;0.50;;
37288;SDS011;23174;49.462;11.000;2023-04-01T08:23:30;3.80;;;0.88;;
37288;SDS011;23174;49.462;11.000;2023-04-01T08:27:56;0.73;;;0.40;;
37288;SDS011;23174;49.462;11.000;2023-04-01T08:30:19;0.32;;;0.30;;
37288;SDS011;23174;49.462;11.000;2023-04-01T08:32:28;0.98;;;0.30;;
37288;SDS011;23174;49.462;11.000;2023-04-01T08:34:36;0.73;;;0.40;;
37288;SDS011;23174;49.462;11.000;2023-04-01T08:36:44;0.85;;;0.50;;
37288;SDS011;23174;49.462;11.000;2023-04-01T08:38:51;0.95;;;0.40;;
37288;SDS011;23174;49.462;11.000;2023-04-01T08:48:18;0.32;;;0.20;;
37288;SDS011;23174;49.462;11.000;2023-04-01T08:52:58;0.65;;;0.47;;
37288;SDS011;23174;49.462;11.000;2023-04-01T09:09:46;1.63;;;0.50;;
37288;SDS011;23174;49.462;11.000;2023-04-01T09:14:37;0.45;;;0.45;;
37288;SDS011;23174;49.462;11.000;2023-04-01T09:19:17;0.20;;;0.20;;
37288;SDS011;23174;49.462;11.000;2023-04-01T09:33:29;1.42;;;0.40;;
37288;SDS011;23174;49.462;11.000;2023-04-01T09:35:46;0.47;;;0.47;;
37288;SDS011;23174;49.462;11.000;2023-04-01T09:51:37;0.28;;;0.15;;
37288;SDS011;23174;49.462;11.000;2023-04-01T10:18:03;0.43;;;0.30;;
37288;SDS011;23174;49.462;11.000;2023-04-01T10:20:31;0.60;;;0.50;;
37288;SDS011;23174;49.462;11.000;2023-04-01T10:58:39;0.50;;;0.50;;
37288;SDS011;23174;49.462;11.000;2023-04-01T11:08:15;1.30;;;0.50;;
37288;SDS011;23174;49.462;11.000;2023-04-01T11:20:34;0.82;;;0.50;;
37288;SDS011;23174;49.462;11.000;2023-04-01T11:23:01;0.40;;;0.32;;
37288;SDS011;23174;49.462;11.000;2023-04-01T11:34:32;0.22;;;0.20;;
37288;SDS011;23174;49.462;11.000;2023-04-01T11:36:41;0.38;;;0.30;;
37288;SDS011;23174;49.462;11.000;2023-04-01T11:39:20;1.73;;;0.30;;
37288;SDS011;23174;49.462;11.000;2023-04-01T11:46:30;0.68;;;0.35;;
37288;SDS011;23174;49.462;11.000;2023-04-01T11:53:19;0.28;;;0.28;;
37288;SDS011;23174;49.462;11.000;2023-04-01T12:00:59;0.30;;;0.30;;
37288;SDS011;23174;49.462;11.000;2023-04-01T12:03:35;1.17;;;0.30;;
37288;SDS011;23174;49.462;11.000;2023-04-01T12:10:47;0.20;;;0.20;;
37288;SDS011;23174;49.462;11.000;2023-04-01T12:17:57;0.20;;;0.20;;
37288;SDS011;23174;49.462;11.000;2023-04-01T12:20:20;0.10;;;0.10;;
37288;SDS011;23174;49.462;11.000;2023-04-01T12:24:49;0.47;;;0.22;;
37288;SDS011;23174;49.462;11.000;2023-04-01T12:27:16;0.45;;;0.45;;
37288;SDS011;23174;49.462;11.000;2023-04-01T12:31:38;0.08;;;0.00;;
37288;SDS011;23174;49.462;11.000;2023-04-01T12:34:13;0.10;;;0.10;;
37288;SDS011;23174;49.462;11.000;2023-04-01T12:41:24;0.22;;;0.22;;
37288;SDS011;23174;49.462;11.000;2023-04-01T12:54:01;0.10;;;0.10;;
37288;SDS011;23174;49.462;11.000;2023-04-01T12:56:03;1.65;;;0.45;;
37288;SDS011;23174;49.462;11.000;2023-04-01T13:07:32;0.38;;;0.38;;
37288;SDS011;23174;49.462;11.000;2023-04-01T13:15:41;0.08;;;0.08;;
37288;SDS011;23174;49.462;11.000;2023-04-01T13:27:46;0.20;;;0.20;;
37288;SDS011;23174;49.462;11.000;2023-04-01T13:39:02;0.30;;;0.30;;
37288;SDS011;23174;49.462;11.000;2023-04-01T13:43:48;0.38;;;0.38;;
37288;SDS011;23174;49.462;11.000;2023-04-01T13:55:04;0.20;;;0.20;;
37288;SDS011;23174;49.462;11.000;2023-04-01T14:04:33;3.30;;;0.32;;
37288;SDS011;23174;49.462;11.000;2023-04-01T14:11:36;0.47;;;0.47;;
37288;SDS011;23174;49.462;11.000;2023-04-01T14:26:11;0.45;;;0.30;;
37288;SDS011;23174;49.462;11.000;2023-04-01T14:28:29;0.43;;;0.15;;
37288;SDS011;23174;49.462;11.000;2023-04-01T14:30:48;0.10;;;0.10;;
37288;SDS011;23174;49.462;11.000;2023-04-01T14:35:15;0.65;;;0.20;;
37288;SDS011;23174;49.462;11.000;2023-04-01T14:37:40;0.15;;;0.10;;
37288;SDS011;23174;49.462;11.000;2023-04-01T14:45:17;0.10;;;0.10;;
37288;SDS011;23174;49.462;11.000;2023-04-01T14:49:50;0.22;;;0.22;;
37288;SDS011;23174;49.462;11.000;2023-04-01T14:54:22;0.30;;;0.30;;
37288;SDS011;23174;49.462;11.000;2023-04-01T14:56:40;0.17;;;0.17;;
37288;SDS011;23174;49.462;11.000;2023-04-01T14:58:49;0.20;;;0.20;;
37288;SDS011;23174;49.462;11.000;2023-04-01T15:05:20;0.20;;;0.20;;
37288;SDS011;23174;49.462;11.000;2023-04-01T15:14:02;0.10;;;0.10;;
37288;SDS011;23174;49.462;11.000;2023-04-01T15:20:41;0.28;;;0.28;;
37288;SDS011;23174;49.462;11.000;2023-04-01T15:23:15;0.40;;;0.40;;
37288;SDS011;23174;49.462;11.000;2023-04-01T15:28:06;0.30;;;0.30;;
37288;SDS011;23174;49.462;11.000;2023-04-01T15:37:27;0.28;;;0.28;;
37288;SDS011;23174;49.462;11.000;2023-04-01T15:39:42;0.30;;;0.20;;
37288;SDS011;23174;49.462;11.000;2023-04-01T15:46:52;0.70;;;0.25;;
37288;SDS011;23174;49.462;11.000;2023-04-01T15:51:40;0.25;;;0.25;;
37288;SDS011;23174;49.462;11.000;2023-04-01T15:58:48;0.40;;;0.35;;
37288;SDS011;23174;49.462;11.000;2023-04-01T16:06:11;0.32;;;0.28;;
37288;SDS011;23174;49.462;11.000;2023-04-01T16:22:05;0.20;;;0.20;;
37288;SDS011;23174;49.462;11.000;2023-04-01T16:24:14;0.28;;;0.28;;
37288;SDS011;23174;49.462;11.000;2023-04-01T16:26:44;0.20;;;0.20;;
37288;SDS011;23174;49.462;11.000;2023-04-01T16:34:02;0.20;;;0.10;;
37288;SDS011;23174;49.462;11.000;2023-04-01T16:38:38;0.35;;;0.35;;
37288;SDS011;23174;49.462;11.000;2023-04-01T16:43:20;0.75;;;0.38;;
37288;SDS011;23174;49.462;11.000;2023-04-01T16:48:14;0.20;;;0.20;;
37288;SDS011;23174;49.462;11.000;2023-04-01T16:50:21;0.30;;;0.30;;
37288;SDS011;23174;49.462;11.000;2023-04-01T16:55:12;0.10;;;0.10;;
37288;SDS011;23174;49.462;11.000;2023-04-01T16:57:22;0.77;;;0.57;;
37288;SDS011;23174;49.462;11.000;2023-04-01T16:59:27;0.63;;;0.60;;
37288;SDS011;23174;49.462;11.000;2023-04-01T17:01:42;0.55;;;0.35;;
37288;SDS011;23174;49.462;11.000;2023-04-01T17:03:44;0.57;;;0.20;;
37288;SDS011;23174;49.462;11.000;2023-04-01T17:08:19;0.68;;;0.47;;
37288;SDS011;23174;49.462;11.000;2023-04-01T17:15:17;0.50;;;0.40;;
37288;SDS011;23174;49.462;11.000;2023-04-01T17:17:41;0.32;;;0.30;;
37288;SDS011;23174;49.462;11.000;2023-04-01T17:19:49;0.90;;;0.60;;
37288;SDS011;23174;49.462;11.000;2023-04-01T17:29:59;0.32;;;0.32;;
37288;SDS011;23174;49.462;11.000;2023-04-01T17:32:29;1.42;;;0.50;;
37288;SDS011;23174;49.462;11.000;2023-04-01T17:34:38;0.20;;;0.20;;
37288;SDS011;23174;49.462;11.000;2023-04-01T18:30:16;0.40;;;0.40;;
37288;SDS011;23174;49.462;11.000;2023-04-01T19:20:39;0.50;;;0.50;;
37288;SDS011;23174;49.462;11.000;2023-04-01T19:27:14;1.10;;;0.75;;
37288;SDS011;23174;49.462;11.000;2023-04-01T19:29:47;1.45;;;0.80;;
37288;SDS011;23174;49.462;11.000;2023-04-01T19:34:35;0.80;;;0.80;;
37288;SDS011;23174;49.462;11.000;2023-04-01T19:37:02;0.60;;;0.60;;
37288;SDS011;23174;49.462;11.000;2023-04-01T19:46:10;1.15;;;1.00;;
37288;SDS011;23174;49.462;11.000;2023-04-01T19:51:30;1.25;;;0.68;;
37288;SDS011;23174;49.462;11.000;2023-04-01T19:53:30;1.02;;;0.70;;
37288;SDS011;23174;49.462;11.000;2023-04-01T19:55:48;0.60;;;0.50;;
37288;SDS011;23174;49.462;11.000;2023-04-01T19:58:09;0.75;;;0.63;;
37288;SDS011;23174;49.462;11.000;2023-04-01T20:00:29;0.60;;;0.60;;
37288;SDS011;23174;49.462;11.000;2023-04-01T20:02:50;0.45;;;0.45;;
37288;SDS011;23174;49.462;11.000;2023-04-01T20:05:24;0.90;;;0.57;;
37288;SDS011;23174;49.462;11.000;2023-04-01T20:07:34;0.73;;;0.22;;
37288;SDS011;23174;49.462;11.000;2023-04-01T20:10:12;0.40;;;0.17;;
37288;SDS011;23174;49.462;11.000;2023-04-01T20:14:51;0.80;;;0.40;;
37288;SDS011;23174;49.462;11.000;2023-04-01T20:19:01;0.32;;;0.32;;
37288;SDS011;23174;49.462;11.000;2023-04-01T20:21:37;0.38;;;0.38;;
37288;SDS011;23174;49.462;11.000;2023-04-01T20:25:58;0.63;;;0.50;;
37288;SDS011;23174;49.462;11.000;2023-04-01T20:47:40;0.45;;;0.43;;
37288;SDS011;23174;49.462;11.000;2023-04-01T20:52:29;0.40;;;0.32;;
37288;SDS011;23174;49.462;11.000;2023-04-01T21:15:38;0.73;;;0.63;;
37288;SDS011;23174;49.462;11.000;2023-04-01T21:22:28;0.10;;;0.10;;
37288;SDS011;23174;49.462;11.000;2023-04-01T21:29:47;0.10;;;0.10;;
37288;SDS011;23174;49.462;11.000;2023-04-01T21:32:13;1.35;;;0.38;;
37288;SDS011;23174;49.462;11.000;2023-04-01T21:39:20;0.20;;;0.20;;
37288;SDS011;23174;49.462;11.000;2023-04-01T21:41:44;1.05;;;0.28;;
37288;SDS011;23174;49.462;11.000;2023-04-01T21:46:39;0.47;;;0.20;;
37288;SDS011;23174;49.462;11.000;2023-04-01T21:51:28;1.13;;;0.52;;
37288;SDS011;23174;49.462;11.000;2023-04-01T22:06:08;0.55;;;0.52;;
37288;SDS011;23174;49.462;11.000;2023-04-01T22:10:38;0.10;;;0.10;;
37288;SDS011;23174;49.462;11.000;2023-04-01T22:15:01;1.85;;;0.32;;
37288;SDS011;23174;49.462;11.000;2023-04-01T22:19:28;0.13;;;0.13;;
37288;SDS011;23174;49.462;11.000;2023-04-01T22:28:33;0.00;;;0.00;;
37288;SDS011;23174;49.462;11.000;2023-04-01T22:30:43;0.32;;;0.30;;
37288;SDS011;23174;49.462;11.000;2023-04-01T22:32:48;0.15;;;0.15;;
37288;SDS011;23174;49.462;11.000;2023-04-01T22:35:36;0.00;;;0.00;;
37288;SDS011;23174;49.462;11.000;2023-04-01T22:44:05;0.00;;;0.00;;
37288;SDS011;23174;49.462;11.000;2023-04-01T22:53:48;0.00;;;0.00;;
37288;SDS011;23174;49.462;11.000;2023-04-01T22:56:00;0.50;;;0.22;;
37288;SDS011;23174;49.462;11.000;2023-04-01T22:58:12;0.30;;;0.30;;
37288;SDS011;23174;49.462;11.000;2023-04-01T23:00:19;0.13;;;0.13;;
37288;SDS011;23174;49.462;11.000;2023-04-01T23:02:59;0.20;;;0.20;;
37288;SDS011;23174;49.462;11.000;2023-04-01T23:05:17;0.60;;;0.47;;
37288;SDS011;23174;49.462;11.000;2023-04-01T23:09:48;0.15;;;0.15;;
37288;SDS011;23174;49.462;11.000;2023-04-01T23:11:54;0.50;;;0.50;;
37288;SDS011;23174;49.462;11.000;2023-04-01T23:14:49;1.08;;;0.70;;
37288;SDS011;23174;49.462;11.000;2023-04-01T23:16:36;0.75;;;0.50;;
37288;SDS011;23174;49.462;11.000;2023-04-01T23:23:45;0.85;;;0.70;;
37288;SDS011;23174;49.462;11.000;2023-04-01T23:28:17;1.23;;;0.50;;
37288;SDS011;23174;49.462;11.000;2023-04-01T23:32:39;1.00;;;0.38;;
37288;SDS011;23174;49.462;11.000;2023-04-01T23:34:40;0.73;;;0.40;;
37288;SDS011;23174;49.462;11.000;2023-04-01T23:36:49;0.50;;;0.40;;
37288;SDS011;23174;49.462;11.000;2023-04-01T23:38:52;1.50;;;0.60;;
37288;SDS011;23174;49.462;11.000;2023-04-01T23:40:54;0.68;;;0.60;;
37288;SDS011;23174;49.462;11.000;2023-04-01T23:42:55;0.82;;;0.55;;
37288;SDS011;23174;49.462;11.000;2023-04-01T23:44:57;0.75;;;0.70;;
37288;SDS011;23174;49.462;11.000;2023-04-01T23:47:00;1.90;;;0.90;;